sensor_id;sensor_type;location;lat;lon;timestamp;pressure;altitude;pressure_sealevel;temperature;humidity
38452;BME280;24231;52.514;13.438;2023-05-24T00:02:19;101300.62;;;13.96;46.93
38452;BME280;24231;52.514;13.438;2023-05-24T00:04:46;101302.87;;;14.12;46.44
38452;BME280;24231;52.514;13.438;2023-05-24T00:07:14;101308.23;;;13.09;48.69
38452;BME280;24231;52.514;13.438;2023-05-24T00:09:41;101307.12;;;13.70;47.45
38452;BME280;24231;52.514;13.438;2023-05-24T00:12:08;101309.94;;;13.56;48.04
38452;BME280;24231;52.514;13.438;2023-05-24T00:14:36;101313.02;;;13.53;47.38
38452;BME280;24231;52.514;13.438;2023-05-24T00:17:03;101316.97;;;13.44;47.54
38452;BME280;24231;52.514;13.438;2023-05-24T00:19:30;101315.12;;;13.70;46.99
38452;BME280;24231;52.514;13.438;2023-05-24T00:21:57;101314.10;;;14.57;45.08
38452;BME280;24231;52.514;13.438;2023-05-24T00:24:24;101316.54;;;13.94;46.69
38452;BME280;24231;52.514;13.438;2023-05-24T00:26:52;101317.22;;;13.98;46.17
38452;BME280;24231;52.514;13.438;2023-05-24T00:29:19;101321.63;;;13.29;47.50
38452;BME280;24231;52.514;13.438;2023-05-24T00:31:46;101323.40;;;13.46;47.07
38452;BME280;24231;52.514;13.438;2023-05-24T00:34:13;101320.32;;;13.29;47.46
38452;BME280;24231;52.514;13.438;2023-05-24T00:36:41;101318.37;;;13.04;48.43
38452;BME280;24231;52.514;13.438;2023-05-24T00:39:13;101318.53;;;13.75;46.82
38452;BME280;24231;52.514;13.438;2023-05-24T00:41:40;101318.38;;;13.47;47.15
38452;BME280;24231;52.514;13.438;2023-05-24T00:44:07;101317.61;;;13.41;47.27
38452;BME280;24231;52.514;13.438;2023-05-24T00:46:34;101318.58;;;13.83;46.35
38452;BME280;24231;52.514;13.438;2023-05-24T00:49:03;101317.82;;;13.14;47.84
38452;BME280;24231;52.514;13.438;2023-05-24T00:51:30;101321.30;;;13.16;47.92
38452;BME280;24231;52.514;13.438;2023-05-24T00:53:58;101322.61;;;13.40;47.30
38452;BME280;24231;52.514;13.438;2023-05-24T00:56:25;101319.08;;;13.46;47.35
38452;BME280;24231;52.514;13.438;2023-05-24T00:58:52;101316.63;;;13.45;47.30
38452;BME280;24231;52.514;13.438;2023-05-24T01:01:19;101321.74;;;13.70;46.75
38452;BME280;24231;52.514;13.438;2023-05-24T01:03:47;101313.36;;;14.07;45.59
38452;BME280;24231;52.514;13.438;2023-05-24T01:06:14;101312.38;;;13.55;45.96
38452;BME280;24231;52.514;13.438;2023-05-24T01:08:56;101318.04;;;13.40;46.74
38452;BME280;24231;52.514;13.438;2023-05-24T01:11:32;101315.96;;;13.98;45.67
38452;BME280;24231;52.514;13.438;2023-05-24T01:14:08;101316.33;;;13.76;45.68
38452;BME280;24231;52.514;13.438;2023-05-24T01:16:44;101317.65;;;13.98;45.13
38452;BME280;24231;52.514;13.438;2023-05-24T01:19:30;101321.14;;;13.27;46.80
38452;BME280;24231;52.514;13.438;2023-05-24T01:22:18;101316.65;;;14.21;44.92
38452;BME280;24231;52.514;13.438;2023-05-24T01:25:01;101320.36;;;13.63;46.14
38452;BME280;24231;52.514;13.438;2023-05-24T01:27:31;101326.52;;;13.37;47.00
38452;BME280;24231;52.514;13.438;2023-05-24T01:29:59;101321.94;;;13.71;46.12
38452;BME280;24231;52.514;13.438;2023-05-24T01:32:28;101321.21;;;14.03;45.50
38452;BME280;24231;52.514;13.438;2023-05-24T01:34:55;101319.61;;;14.10;45.10
38452;BME280;24231;52.514;13.438;2023-05-24T01:37:22;101323.96;;;13.96;45.74
38452;BME280;24231;52.514;13.438;2023-05-24T01:39:50;101322.49;;;14.34;44.85
38452;BME280;24231;52.514;13.438;2023-05-24T01:42:24;101326.80;;;13.58;46.53
38452;BME280;24231;52.514;13.438;2023-05-24T01:45:03;101328.55;;;13.71;46.05
38452;BME280;24231;52.514;13.438;2023-05-24T01:47:41;101326.58;;;13.90;45.41
38452;BME280;24231;52.514;13.438;2023-05-24T01:50:16;101329.01;;;13.78;45.61
38452;BME280;24231;52.514;13.438;2023-05-24T01:52:44;101328.66;;;13.77;46.11
38452;BME280;24231;52.514;13.438;2023-05-24T01:55:15;101326.89;;;14.20;45.05
38452;BME280;24231;52.514;13.438;2023-05-24T01:57:44;101327.20;;;14.62;44.00
38452;BME280;24231;52.514;13.438;2023-05-24T02:00:13;101327.10;;;13.52;45.91
38452;BME280;24231;52.514;13.438;2023-05-24T02:02:42;101327.64;;;13.95;45.34
38452;BME280;24231;52.514;13.438;2023-05-24T02:05:09;101331.42;;;13.70;46.29
38452;BME280;24231;52.514;13.438;2023-05-24T02:07:37;101332.15;;;14.02;46.03
38452;BME280;24231;52.514;13.438;2023-05-24T02:10:05;101329.16;;;14.07;45.96
38452;BME280;24231;52.514;13.438;2023-05-24T02:12:32;101333.62;;;13.47;47.81
38452;BME280;24231;52.514;13.438;2023-05-24T02:14:59;101337.12;;;12.53;50.23
38452;BME280;24231;52.514;13.438;2023-05-24T02:17:26;101333.62;;;12.97;49.29
38452;BME280;24231;52.514;13.438;2023-05-24T02:19:54;101332.22;;;13.36;48.72
38452;BME280;24231;52.514;13.438;2023-05-24T02:22:21;101330.00;;;14.16;46.90
38452;BME280;24231;52.514;13.438;2023-05-24T02:24:48;101326.76;;;14.06;46.90
38452;BME280;24231;52.514;13.438;2023-05-24T02:27:15;101327.58;;;13.76;47.24
38452;BME280;24231;52.514;13.438;2023-05-24T02:29:42;101332.12;;;13.33;48.59
38452;BME280;24231;52.514;13.438;2023-05-24T02:32:09;101330.26;;;13.93;47.58
38452;BME280;24231;52.514;13.438;2023-05-24T02:34:36;101330.00;;;13.04;49.55
38452;BME280;24231;52.514;13.438;2023-05-24T02:37:04;101320.99;;;14.25;46.65
38452;BME280;24231;52.514;13.438;2023-05-24T02:39:31;101323.47;;;14.02;46.87
38452;BME280;24231;52.514;13.438;2023-05-24T02:41:58;101322.77;;;14.47;45.89
38452;BME280;24231;52.514;13.438;2023-05-24T02:44:25;101321.70;;;13.52;47.74
38452;BME280;24231;52.514;13.438;2023-05-24T02:46:52;101323.29;;;14.45;45.82
38452;BME280;24231;52.514;13.438;2023-05-24T02:49:19;101323.19;;;14.19;46.36
38452;BME280;24231;52.514;13.438;2023-05-24T02:51:46;101322.14;;;14.35;46.15
38452;BME280;24231;52.514;13.438;2023-05-24T02:54:14;101323.83;;;13.68;47.73
38452;BME280;24231;52.514;13.438;2023-05-24T02:56:41;101327.48;;;12.92;49.32
38452;BME280;24231;52.514;13.438;2023-05-24T02:59:08;101331.99;;;13.14;49.54
38452;BME280;24231;52.514;13.438;2023-05-24T03:01:35;101332.09;;;13.47;48.39
38452;BME280;24231;52.514;13.438;2023-05-24T03:04:03;101335.42;;;13.41;48.52
38452;BME280;24231;52.514;13.438;2023-05-24T03:06:30;101329.56;;;13.66;47.83
38452;BME280;24231;52.514;13.438;2023-05-24T03:08:57;101328.54;;;13.97;47.44
38452;BME280;24231;52.514;13.438;2023-05-24T03:11:24;101330.12;;;12.97;49.78
38452;BME280;24231;52.514;13.438;2023-05-24T03:13:51;101331.94;;;13.30;49.53
38452;BME280;24231;52.514;13.438;2023-05-24T03:16:19;101332.22;;;12.87;50.94
38452;BME280;24231;52.514;13.438;2023-05-24T03:18:46;101335.11;;;12.24;52.55
38452;BME280;24231;52.514;13.438;2023-05-24T03:21:13;101333.30;;;13.72;49.28
38452;BME280;24231;52.514;13.438;2023-05-24T03:23:40;101333.36;;;13.50;49.37
38452;BME280;24231;52.514;13.438;2023-05-24T03:26:08;101335.44;;;13.63;48.83
38452;BME280;24231;52.514;13.438;2023-05-24T03:28:35;101336.40;;;13.74;48.43
38452;BME280;24231;52.514;13.438;2023-05-24T03:31:02;101341.53;;;12.89;50.17
38452;BME280;24231;52.514;13.438;2023-05-24T03:33:29;101337.38;;;13.87;47.99
38452;BME280;24231;52.514;13.438;2023-05-24T03:35:56;101333.24;;;14.15;47.04
38452;BME280;24231;52.514;13.438;2023-05-24T03:38:24;101336.50;;;14.38;46.61
38452;BME280;24231;52.514;13.438;2023-05-24T03:40:51;101336.89;;;14.16;47.01
38452;BME280;24231;52.514;13.438;2023-05-24T03:43:19;101342.16;;;13.69;48.50
38452;BME280;24231;52.514;13.438;2023-05-24T03:45:46;101345.92;;;13.20;49.90
38452;BME280;24231;52.514;13.438;2023-05-24T03:48:13;101344.49;;;13.15;49.57
38452;BME280;24231;52.514;13.438;2023-05-24T03:50:40;101346.38;;;13.90;47.89
38452;BME280;24231;52.514;13.438;2023-05-24T03:53:07;101346.48;;;14.30;46.88
38452;BME280;24231;52.514;13.438;2023-05-24T03:55:34;101354.63;;;13.54;48.89
38452;BME280;24231;52.514;13.438;2023-05-24T03:58:01;101353.33;;;13.62;48.47
38452;BME280;24231;52.514;13.438;2023-05-24T04:00:29;101350.96;;;14.61;46.00
38452;BME280;24231;52.514;13.438;2023-05-24T04:02:56;101349.54;;;14.03;47.10
38452;BME280;24231;52.514;13.438;2023-05-24T04:05:23;101350.62;;;13.42;48.86
38452;BME280;24231;52.514;13.438;2023-05-24T04:07:50;101357.72;;;13.19;49.74
38452;BME280;24231;52.514;13.438;2023-05-24T04:10:18;101362.30;;;13.03;50.26
38452;BME280;24231;52.514;13.438;2023-05-24T04:12:45;101359.36;;;13.27;49.49
38452;BME280;24231;52.514;13.438;2023-05-24T04:15:12;101360.89;;;12.90;50.62
38452;BME280;24231;52.514;13.438;2023-05-24T04:17:40;101358.14;;;12.96;50.36
38452;BME280;24231;52.514;13.438;2023-05-24T04:20:07;101364.54;;;13.28;49.41
38452;BME280;24231;52.514;13.438;2023-05-24T04:22:35;101363.98;;;13.33;49.09
38452;BME280;24231;52.514;13.438;2023-05-24T04:25:02;101366.42;;;13.57;48.17
38452;BME280;24231;52.514;13.438;2023-05-24T04:27:29;101365.12;;;13.82;47.31
38452;BME280;24231;52.514;13.438;2023-05-24T04:29:56;101366.23;;;13.01;48.89
38452;BME280;24231;52.514;13.438;2023-05-24T04:32:24;101369.12;;;13.76;47.34
38452;BME280;24231;52.514;13.438;2023-05-24T04:34:51;101368.57;;;12.82;49.58
38452;BME280;24231;52.514;13.438;2023-05-24T04:37:18;101370.43;;;13.87;46.61
38452;BME280;24231;52.514;13.438;2023-05-24T04:39:45;101370.46;;;13.98;45.89
38452;BME280;24231;52.514;13.438;2023-05-24T04:42:12;101369.32;;;13.90;46.15
38452;BME280;24231;52.514;13.438;2023-05-24T04:44:40;101375.46;;;13.27;47.76
38452;BME280;24231;52.514;13.438;2023-05-24T04:47:07;101376.63;;;13.48;47.37
38452;BME280;24231;52.514;13.438;2023-05-24T04:49:34;101381.20;;;13.75;47.05
38452;BME280;24231;52.514;13.438;2023-05-24T04:52:01;101382.27;;;13.37;47.57
38452;BME280;24231;52.514;13.438;2023-05-24T04:54:29;101387.03;;;13.28;47.96
38452;BME280;24231;52.514;13.438;2023-05-24T04:56:56;101388.66;;;13.00;48.66
38452;BME280;24231;52.514;13.438;2023-05-24T04:59:24;101390.87;;;13.18;48.53
38452;BME280;24231;52.514;13.438;2023-05-24T05:01:51;101398.13;;;12.57;50.35
38452;BME280;24231;52.514;13.438;2023-05-24T05:04:18;101397.07;;;13.22;48.25
38452;BME280;24231;52.514;13.438;2023-05-24T05:06:46;101400.66;;;12.79;49.49
38452;BME280;24231;52.514;13.438;2023-05-24T05:09:13;101403.89;;;12.89;49.08
38452;BME280;24231;52.514;13.438;2023-05-24T05:11:40;101403.07;;;13.12;48.62
38452;BME280;24231;52.514;13.438;2023-05-24T05:14:07;101409.39;;;12.78;49.38
38452;BME280;24231;52.514;13.438;2023-05-24T05:16:35;101411.29;;;13.34;47.51
38452;BME280;24231;52.514;13.438;2023-05-24T05:19:03;101415.57;;;13.55;47.23
38452;BME280;24231;52.514;13.438;2023-05-24T05:21:31;101415.82;;;13.83;46.50
38452;BME280;24231;52.514;13.438;2023-05-24T05:23:58;101417.12;;;12.86;48.60
38452;BME280;24231;52.514;13.438;2023-05-24T05:26:26;101419.66;;;13.82;46.65
38452;BME280;24231;52.514;13.438;2023-05-24T05:28:54;101421.67;;;13.81;47.07
38452;BME280;24231;52.514;13.438;2023-05-24T05:31:22;101425.58;;;13.49;46.52
38452;BME280;24231;52.514;13.438;2023-05-24T05:33:50;101426.57;;;12.94;48.40
38452;BME280;24231;52.514;13.438;2023-05-24T05:36:17;101429.24;;;12.95;48.94
38452;BME280;24231;52.514;13.438;2023-05-24T05:38:45;101431.92;;;12.91;49.40
38452;BME280;24231;52.514;13.438;2023-05-24T05:41:12;101438.99;;;12.30;50.97
38452;BME280;24231;52.514;13.438;2023-05-24T05:43:39;101438.83;;;13.20;48.39
38452;BME280;24231;52.514;13.438;2023-05-24T05:46:06;101438.37;;;12.70;49.21
38452;BME280;24231;52.514;13.438;2023-05-24T05:48:33;101444.31;;;13.27;48.37
38452;BME280;24231;52.514;13.438;2023-05-24T05:51:01;101443.75;;;13.90;46.64
38452;BME280;24231;52.514;13.438;2023-05-24T05:53:28;101443.79;;;14.67;44.69
38452;BME280;24231;52.514;13.438;2023-05-24T05:55:55;101447.45;;;13.59;46.58
38452;BME280;24231;52.514;13.438;2023-05-24T05:58:22;101448.24;;;13.36;47.28
38452;BME280;24231;52.514;13.438;2023-05-24T06:00:50;101451.35;;;13.37;47.61
38452;BME280;24231;52.514;13.438;2023-05-24T06:03:16;101450.19;;;14.11;45.97
38452;BME280;24231;52.514;13.438;2023-05-24T06:05:44;101452.49;;;13.82;46.23
38452;BME280;24231;52.514;13.438;2023-05-24T06:08:11;101451.97;;;14.18;45.58
38452;BME280;24231;52.514;13.438;2023-05-24T06:10:38;101453.49;;;12.92;48.94
38452;BME280;24231;52.514;13.438;2023-05-24T06:13:05;101457.09;;;14.21;45.72
38452;BME280;24231;52.514;13.438;2023-05-24T06:15:32;101458.23;;;13.81;46.60
38452;BME280;24231;52.514;13.438;2023-05-24T06:18:00;101455.30;;;14.60;44.95
38452;BME280;24231;52.514;13.438;2023-05-24T06:20:27;101459.50;;;14.56;44.86
38452;BME280;24231;52.514;13.438;2023-05-24T06:22:54;101464.46;;;14.74;44.72
38452;BME280;24231;52.514;13.438;2023-05-24T06:25:21;101467.37;;;13.94;46.61
38452;BME280;24231;52.514;13.438;2023-05-24T06:27:48;101465.63;;;13.96;46.52
38452;BME280;24231;52.514;13.438;2023-05-24T06:30:16;101468.43;;;13.98;46.67
38452;BME280;24231;52.514;13.438;2023-05-24T06:32:43;101468.10;;;14.27;46.27
38452;BME280;24231;52.514;13.438;2023-05-24T06:35:10;101465.71;;;13.85;47.07
38452;BME280;24231;52.514;13.438;2023-05-24T06:37:38;101468.08;;;12.88;49.22
38452;BME280;24231;52.514;13.438;2023-05-24T06:40:06;101469.82;;;13.54;48.20
38452;BME280;24231;52.514;13.438;2023-05-24T06:42:34;101472.41;;;14.23;46.57
38452;BME280;24231;52.514;13.438;2023-05-24T06:45:01;101477.27;;;14.16;46.73
38452;BME280;24231;52.514;13.438;2023-05-24T06:47:28;101483.88;;;13.51;48.92
38452;BME280;24231;52.514;13.438;2023-05-24T06:49:55;101492.39;;;13.42;49.19
38452;BME280;24231;52.514;13.438;2023-05-24T06:52:22;101495.79;;;14.24;47.40
38452;BME280;24231;52.514;13.438;2023-05-24T06:54:50;101497.59;;;14.55;46.20
38452;BME280;24231;52.514;13.438;2023-05-24T06:57:17;101495.27;;;14.79;45.71
38452;BME280;24231;52.514;13.438;2023-05-24T06:59:45;101501.78;;;14.67;46.19
38452;BME280;24231;52.514;13.438;2023-05-24T07:02:12;101499.26;;;14.35;47.02
38452;BME280;24231;52.514;13.438;2023-05-24T07:04:39;101501.95;;;14.55;46.09
38452;BME280;24231;52.514;13.438;2023-05-24T07:07:07;101505.65;;;13.90;47.73
38452;BME280;24231;52.514;13.438;2023-05-24T07:09:34;101502.94;;;13.88;48.23
38452;BME280;24231;52.514;13.438;2023-05-24T07:12:03;101502.15;;;13.79;48.07
38452;BME280;24231;52.514;13.438;2023-05-24T07:14:31;101501.66;;;14.56;46.40
38452;BME280;24231;52.514;13.438;2023-05-24T07:16:58;101501.28;;;14.97;45.41
38452;BME280;24231;52.514;13.438;2023-05-24T07:19:25;101506.71;;;14.96;45.51
38452;BME280;24231;52.514;13.438;2023-05-24T07:21:53;101510.91;;;14.12;47.22
38452;BME280;24231;52.514;13.438;2023-05-24T07:24:20;101514.13;;;15.72;43.89
38452;BME280;24231;52.514;13.438;2023-05-24T07:26:47;101519.21;;;15.86;42.88
38452;BME280;24231;52.514;13.438;2023-05-24T07:29:15;101520.19;;;14.44;45.77
38452;BME280;24231;52.514;13.438;2023-05-24T07:31:42;101519.41;;;15.39;43.91
38452;BME280;24231;52.514;13.438;2023-05-24T07:34:09;101521.01;;;15.48;44.26
38452;BME280;24231;52.514;13.438;2023-05-24T07:36:36;101523.60;;;15.68;43.95
38452;BME280;24231;52.514;13.438;2023-05-24T07:39:03;101527.92;;;15.55;44.16
38452;BME280;24231;52.514;13.438;2023-05-24T07:41:31;101529.96;;;16.02;43.09
38452;BME280;24231;52.514;13.438;2023-05-24T07:43:58;101532.24;;;16.03;43.18
38452;BME280;24231;52.514;13.438;2023-05-24T07:46:25;101528.88;;;17.05;41.56
38452;BME280;24231;52.514;13.438;2023-05-24T07:48:53;101532.73;;;15.99;43.05
38452;BME280;24231;52.514;13.438;2023-05-24T07:51:20;101528.19;;;16.94;41.21
38452;BME280;24231;52.514;13.438;2023-05-24T07:53:47;101535.42;;;16.62;41.71
38452;BME280;24231;52.514;13.438;2023-05-24T07:56:14;101541.14;;;16.55;42.30
38452;BME280;24231;52.514;13.438;2023-05-24T07:58:41;101547.41;;;16.30;42.54
38452;BME280;24231;52.514;13.438;2023-05-24T08:01:08;101549.75;;;15.89;43.32
38452;BME280;24231;52.514;13.438;2023-05-24T08:03:35;101550.72;;;16.62;42.14
38452;BME280;24231;52.514;13.438;2023-05-24T08:06:02;101554.17;;;16.14;42.90
38452;BME280;24231;52.514;13.438;2023-05-24T08:08:29;101550.95;;;15.94;43.29
38452;BME280;24231;52.514;13.438;2023-05-24T08:10:56;101550.16;;;16.31;42.45
38452;BME280;24231;52.514;13.438;2023-05-24T08:13:23;101549.78;;;16.33;42.21
38452;BME280;24231;52.514;13.438;2023-05-24T08:15:51;101549.53;;;15.76;43.80
38452;BME280;24231;52.514;13.438;2023-05-24T08:18:18;101551.59;;;15.74;43.55
38452;BME280;24231;52.514;13.438;2023-05-24T08:20:46;101559.00;;;15.93;43.24
38452;BME280;24231;52.514;13.438;2023-05-24T08:23:13;101555.29;;;15.58;43.82
38452;BME280;24231;52.514;13.438;2023-05-24T08:25:41;101560.71;;;14.71;45.16
38452;BME280;24231;52.514;13.438;2023-05-24T08:28:08;101561.99;;;15.78;43.02
38452;BME280;24231;52.514;13.438;2023-05-24T08:30:36;101563.11;;;16.14;42.38
38452;BME280;24231;52.514;13.438;2023-05-24T08:33:04;101561.33;;;16.53;41.37
38452;BME280;24231;52.514;13.438;2023-05-24T08:35:31;101561.16;;;16.41;42.03
38452;BME280;24231;52.514;13.438;2023-05-24T08:37:59;101566.17;;;16.24;42.42
38452;BME280;24231;52.514;13.438;2023-05-24T08:40:26;101567.26;;;16.17;42.35
38452;BME280;24231;52.514;13.438;2023-05-24T08:42:54;101570.78;;;16.12;42.55
38452;BME280;24231;52.514;13.438;2023-05-24T08:45:25;101570.31;;;16.19;42.07
38452;BME280;24231;52.514;13.438;2023-05-24T08:47:55;101571.48;;;15.88;42.89
38452;BME280;24231;52.514;13.438;2023-05-24T08:50:22;101572.81;;;16.38;41.88
38452;BME280;24231;52.514;13.438;2023-05-24T08:52:50;101572.17;;;15.62;43.08
38452;BME280;24231;52.514;13.438;2023-05-24T08:55:18;101574.93;;;15.17;44.25
38452;BME280;24231;52.514;13.438;2023-05-24T08:57:46;101579.47;;;15.98;42.64
38452;BME280;24231;52.514;13.438;2023-05-24T09:00:14;101583.47;;;16.97;40.62
38452;BME280;24231;52.514;13.438;2023-05-24T09:02:42;101586.66;;;16.49;41.27
38452;BME280;24231;52.514;13.438;2023-05-24T09:05:12;101588.41;;;17.09;40.33
38452;BME280;24231;52.514;13.438;2023-05-24T09:07:42;101587.62;;;15.75;42.67
38452;BME280;24231;52.514;13.438;2023-05-24T09:10:10;101593.60;;;16.32;42.14
38452;BME280;24231;52.514;13.438;2023-05-24T09:12:38;101592.87;;;15.90;42.93
38452;BME280;24231;52.514;13.438;2023-05-24T09:15:07;101589.51;;;15.73;42.97
38452;BME280;24231;52.514;13.438;2023-05-24T09:17:35;101583.23;;;15.85;42.68
38452;BME280;24231;52.514;13.438;2023-05-24T09:20:03;101590.69;;;16.20;42.10
38452;BME280;24231;52.514;13.438;2023-05-24T09:22:31;101591.50;;;16.74;41.53
38452;BME280;24231;52.514;13.438;2023-05-24T09:24:59;101587.13;;;16.54;41.00
38452;BME280;24231;52.514;13.438;2023-05-24T09:27:27;101581.14;;;16.04;42.45
38452;BME280;24231;52.514;13.438;2023-05-24T09:29:55;101589.07;;;15.06;44.28
38452;BME280;24231;52.514;13.438;2023-05-24T09:32:22;101590.45;;;15.65;43.97
38452;BME280;24231;52.514;13.438;2023-05-24T09:34:51;101586.57;;;16.58;41.65
38452;BME280;24231;52.514;13.438;2023-05-24T09:37:20;101588.47;;;16.34;41.99
38452;BME280;24231;52.514;13.438;2023-05-24T09:39:49;101590.87;;;17.13;40.70
38452;BME280;24231;52.514;13.438;2023-05-24T09:42:17;101581.91;;;17.80;38.66
38452;BME280;24231;52.514;13.438;2023-05-24T09:44:45;101583.74;;;17.32;39.27
38452;BME280;24231;52.514;13.438;2023-05-24T09:47:12;101586.31;;;17.38;39.49
38452;BME280;24231;52.514;13.438;2023-05-24T09:49:40;101594.59;;;16.01;41.92
38452;BME280;24231;52.514;13.438;2023-05-24T09:52:08;101589.97;;;17.52;39.61
38452;BME280;24231;52.514;13.438;2023-05-24T09:54:39;101599.82;;;16.42;41.31
38452;BME280;24231;52.514;13.438;2023-05-24T09:57:06;101602.75;;;17.17;40.15
38452;BME280;24231;52.514;13.438;2023-05-24T09:59:34;101610.65;;;17.02;41.31
38452;BME280;24231;52.514;13.438;2023-05-24T10:02:10;101603.23;;;15.49;43.67
38452;BME280;24231;52.514;13.438;2023-05-24T10:04:37;101606.61;;;16.24;42.32
38452;BME280;24231;52.514;13.438;2023-05-24T10:07:05;101604.43;;;17.40;39.70
38452;BME280;24231;52.514;13.438;2023-05-24T10:09:34;101604.60;;;17.94;39.29
38452;BME280;24231;52.514;13.438;2023-05-24T10:12:07;101609.11;;;17.61;39.23
38452;BME280;24231;52.514;13.438;2023-05-24T10:14:35;101618.94;;;17.05;40.17
38452;BME280;24231;52.514;13.438;2023-05-24T10:17:04;101608.74;;;17.97;38.12
38452;BME280;24231;52.514;13.438;2023-05-24T10:19:32;101611.82;;;16.08;41.57
38452;BME280;24231;52.514;13.438;2023-05-24T10:22:00;101603.65;;;17.95;38.29
38452;BME280;24231;52.514;13.438;2023-05-24T10:24:34;101607.41;;;17.92;38.18
38452;BME280;24231;52.514;13.438;2023-05-24T10:27:08;101606.25;;;18.44;37.81
38452;BME280;24231;52.514;13.438;2023-05-24T10:30:00;101604.75;;;18.78;36.55
38452;BME280;24231;52.514;13.438;2023-05-24T10:32:32;101604.58;;;18.77;36.81
38452;BME280;24231;52.514;13.438;2023-05-24T10:35:03;101612.18;;;17.01;40.06
38452;BME280;24231;52.514;13.438;2023-05-24T10:37:32;101612.76;;;17.54;39.68
38452;BME280;24231;52.514;13.438;2023-05-24T10:39:59;101606.33;;;18.60;36.38
38452;BME280;24231;52.514;13.438;2023-05-24T10:42:30;101611.47;;;17.43;38.84
38452;BME280;24231;52.514;13.438;2023-05-24T10:44:58;101613.29;;;18.86;37.15
38452;BME280;24231;52.514;13.438;2023-05-24T10:47:25;101612.01;;;19.13;35.93
38452;BME280;24231;52.514;13.438;2023-05-24T10:49:55;101611.32;;;19.34;35.22
38452;BME280;24231;52.514;13.438;2023-05-24T10:52:32;101610.53;;;17.77;37.52
38452;BME280;24231;52.514;13.438;2023-05-24T10:55:02;101611.99;;;19.77;34.87
38452;BME280;24231;52.514;13.438;2023-05-24T10:57:30;101611.14;;;19.43;35.42
38452;BME280;24231;52.514;13.438;2023-05-24T10:59:58;101613.06;;;19.80;34.20
38452;BME280;24231;52.514;13.438;2023-05-24T11:02:58;101614.38;;;20.10;32.85
38452;BME280;24231;52.514;13.438;2023-05-24T11:05:32;101611.66;;;19.34;33.88
38452;BME280;24231;52.514;13.438;2023-05-24T11:07:59;101610.48;;;19.69;34.29
38452;BME280;24231;52.514;13.438;2023-05-24T11:10:29;101612.38;;;19.84;33.28
38452;BME280;24231;52.514;13.438;2023-05-24T11:12:59;101612.91;;;20.03;33.75
38452;BME280;24231;52.514;13.438;2023-05-24T11:15:28;101614.76;;;19.16;34.85
38452;BME280;24231;52.514;13.438;2023-05-24T11:18:27;101607.92;;;19.55;34.50
38452;BME280;24231;52.514;13.438;2023-05-24T11:20:55;101608.02;;;19.39;34.86
38452;BME280;24231;52.514;13.438;2023-05-24T11:23:24;101607.14;;;18.90;35.34
38452;BME280;24231;52.514;13.438;2023-05-24T11:25:51;101611.33;;;18.11;37.27
38452;BME280;24231;52.514;13.438;2023-05-24T11:28:18;101613.40;;;17.94;37.76
38452;BME280;24231;52.514;13.438;2023-05-24T11:30:46;101614.50;;;17.95;37.41
38452;BME280;24231;52.514;13.438;2023-05-24T11:33:15;101613.24;;;17.78;38.13
38452;BME280;24231;52.514;13.438;2023-05-24T11:35:42;101612.25;;;17.95;38.17
38452;BME280;24231;52.514;13.438;2023-05-24T11:38:09;101618.46;;;16.83;39.73
38452;BME280;24231;52.514;13.438;2023-05-24T11:40:37;101618.92;;;18.24;37.77
38452;BME280;24231;52.514;13.438;2023-05-24T11:43:05;101621.37;;;18.62;37.20
38452;BME280;24231;52.514;13.438;2023-05-24T11:45:32;101619.79;;;18.96;36.54
38452;BME280;24231;52.514;13.438;2023-05-24T11:48:03;101619.21;;;18.75;36.84
38452;BME280;24231;52.514;13.438;2023-05-24T11:50:30;101614.38;;;19.73;35.45
38452;BME280;24231;52.514;13.438;2023-05-24T11:53:01;101617.13;;;18.72;36.14
38452;BME280;24231;52.514;13.438;2023-05-24T11:55:28;101618.91;;;18.74;36.35
38452;BME280;24231;52.514;13.438;2023-05-24T11:57:57;101622.59;;;18.82;36.54
38452;BME280;24231;52.514;13.438;2023-05-24T12:00:25;101624.42;;;19.20;35.42
38452;BME280;24231;52.514;13.438;2023-05-24T12:02:55;101624.28;;;17.12;38.23
38452;BME280;24231;52.514;13.438;2023-05-24T12:05:23;101624.59;;;18.50;36.26
38452;BME280;24231;52.514;13.438;2023-05-24T12:08:01;101625.82;;;17.98;37.21
38452;BME280;24231;52.514;13.438;2023-05-24T12:10:28;101626.51;;;18.93;34.70
38452;BME280;24231;52.514;13.438;2023-05-24T12:12:56;101626.23;;;19.71;33.83
38452;BME280;24231;52.514;13.438;2023-05-24T12:15:23;101626.02;;;19.83;33.84
38452;BME280;24231;52.514;13.438;2023-05-24T12:17:50;101624.97;;;19.73;33.62
38452;BME280;24231;52.514;13.438;2023-05-24T12:20:18;101625.23;;;19.22;34.57
38452;BME280;24231;52.514;13.438;2023-05-24T12:22:50;101626.15;;;18.92;35.15
38452;BME280;24231;52.514;13.438;2023-05-24T12:25:18;101629.54;;;16.28;39.13
38452;BME280;24231;52.514;13.438;2023-05-24T12:27:46;101620.99;;;17.98;36.66
38452;BME280;24231;52.514;13.438;2023-05-24T12:30:14;101625.58;;;18.98;35.15
38452;BME280;24231;52.514;13.438;2023-05-24T12:32:42;101620.46;;;18.88;34.54
38452;BME280;24231;52.514;13.438;2023-05-24T12:35:10;101615.09;;;19.43;34.27
38452;BME280;24231;52.514;13.438;2023-05-24T12:37:37;101618.37;;;18.49;36.45
38452;BME280;24231;52.514;13.438;2023-05-24T12:40:14;101634.53;;;17.27;39.15
38452;BME280;24231;52.514;13.438;2023-05-24T12:42:43;101633.35;;;17.33;39.28
38452;BME280;24231;52.514;13.438;2023-05-24T12:45:10;101625.76;;;17.93;37.94
38452;BME280;24231;52.514;13.438;2023-05-24T12:47:38;101626.48;;;17.78;38.48